Fancher, Illinois
Current Conditions -  °F | °C
As of 11:55 AM on Monday 24 Nov 2014 (Local Time) from K1H2 Reporting Station
Overcast Overcast  
Wind Chill: 29°   Ceiling: 2600
Heat Index: 38°   Visibility: 10mi
Dew Point: 28°   Wind: 16mph
Humidity: 65%   Direction: 250°WSW
Pressure: 29.65"   Gusts: 24mph
Location:  39.2654°N, 88.7413°W
Report Text: K1H2 241755Z AUTO 25014G21KT 10SM OVC026 04/M02 A2965 RMK AO2 T00351025 10055 20030
Loading
Personal Weather Stations






























Interactive Weather Map New forecast layout! Learn more

10-Day Weather Forecast

Advertisements
Track Severe Weather on mobile